createdAt,value
2017-06-17T00:02:05.710Z,7.10
2017-06-17T00:04:34.145Z,8.80
2017-06-17T00:07:02.547Z,6.53
2017-06-17T00:09:30.933Z,6.17
2017-06-17T00:11:59.777Z,11.30
2017-06-17T00:14:28.245Z,8.60
2017-06-17T00:16:56.640Z,7.00
2017-06-17T00:19:25.068Z,7.60
2017-06-17T00:21:53.543Z,4.90
2017-06-17T00:24:21.915Z,5.73
2017-06-17T00:26:50.355Z,6.27
2017-06-17T00:29:18.727Z,8.93
2017-06-17T00:31:47.126Z,6.23
2017-06-17T00:34:15.573Z,4.20
2017-06-17T00:36:43.974Z,7.43
2017-06-17T00:39:13.115Z,5.10
2017-06-17T00:41:41.543Z,5.10
2017-06-17T00:44:09.965Z,7.03
2017-06-17T00:46:38.437Z,7.17
2017-06-17T00:49:06.890Z,7.40
2017-06-17T00:51:36.061Z,5.20
2017-06-17T00:54:10.220Z,5.77
2017-06-17T00:56:38.705Z,3.93
2017-06-17T00:59:07.093Z,3.23
2017-06-17T01:01:35.531Z,6.53
2017-06-17T01:04:04.741Z,10.50
2017-06-17T01:06:33.140Z,10.50
2017-06-17T01:09:01.577Z,5.00
2017-06-17T01:11:30.048Z,7.63
2017-06-17T01:13:58.492Z,3.50
2017-06-17T01:16:27.026Z,4.90
2017-06-17T01:18:55.426Z,5.50
2017-06-17T01:21:23.809Z,7.17
2017-06-17T01:23:52.463Z,3.90
2017-06-17T01:26:20.924Z,6.90
2017-06-17T01:28:49.311Z,3.23
2017-06-17T01:31:18.750Z,3.97
2017-06-17T01:33:47.186Z,4.53
2017-06-17T01:36:15.559Z,5.73
2017-06-17T01:38:44.002Z,5.00
2017-06-17T01:41:12.376Z,9.77
2017-06-17T01:43:40.759Z,7.10
2017-06-17T01:46:09.230Z,4.43
2017-06-17T01:48:38.469Z,7.50
2017-06-17T01:51:06.855Z,6.17
2017-06-17T01:53:35.289Z,6.17
2017-06-17T01:56:03.674Z,6.07
2017-06-17T01:58:32.084Z,4.50
2017-06-17T02:01:00.532Z,5.40
2017-06-17T02:03:29.679Z,8.50
2017-06-17T02:05:58.102Z,4.93
2017-06-17T02:08:26.512Z,6.23
2017-06-17T02:10:54.886Z,11.30
2017-06-17T02:13:23.276Z,10.73
2017-06-17T02:15:51.666Z,7.10
2017-06-17T02:18:20.844Z,7.23
2017-06-17T02:20:49.229Z,6.13
2017-06-17T02:23:18.087Z,8.80
2017-06-17T02:25:47.218Z,4.47
2017-06-17T02:28:15.608Z,8.73
2017-06-17T02:30:44.076Z,7.33
2017-06-17T02:33:12.535Z,5.73
2017-06-17T02:35:40.919Z,13.93
2017-06-17T02:38:09.320Z,9.33
2017-06-17T02:40:37.707Z,5.63
2017-06-17T02:43:06.121Z,11.23
2017-06-17T02:45:35.295Z,8.53
2017-06-17T02:48:03.685Z,14.40
2017-06-17T02:50:32.104Z,11.30
2017-06-17T02:53:00.827Z,9.03
2017-06-17T02:55:29.195Z,7.97
2017-06-17T02:57:57.601Z,8.00
2017-06-17T03:00:26.040Z,7.90
2017-06-17T03:02:54.424Z,7.63
2017-06-17T03:05:22.831Z,8.83
2017-06-17T03:07:51.307Z,8.30
2017-06-17T03:10:19.675Z,7.50
2017-06-17T03:12:48.043Z,6.10
2017-06-17T03:15:16.465Z,8.73
2017-06-17T03:17:45.645Z,10.60
2017-06-17T03:20:14.116Z,10.87
2017-06-17T03:22:42.537Z,8.47
2017-06-17T03:25:11.696Z,6.40
2017-06-17T03:27:40.085Z,9.53
2017-06-17T03:30:08.898Z,9.30
2017-06-17T03:32:37.400Z,8.87
2017-06-17T03:35:06.515Z,8.70
2017-06-17T03:37:34.932Z,9.90
2017-06-17T03:40:03.357Z,9.23
2017-06-17T03:42:31.728Z,5.10
2017-06-17T03:45:00.518Z,9.10
2017-06-17T03:47:28.892Z,10.33
2017-06-17T03:49:57.284Z,12.73
2017-06-17T03:52:25.703Z,6.63
2017-06-17T03:54:54.059Z,8.73
2017-06-17T03:57:22.450Z,5.17
2017-06-17T03:59:50.847Z,4.67
2017-06-17T04:02:19.239Z,14.03
2017-06-17T04:04:47.608Z,7.53
2017-06-17T04:07:16.328Z,10.87
2017-06-17T04:09:44.731Z,6.57
2017-06-17T04:12:13.104Z,8.17
2017-06-17T04:14:41.688Z,13.80
2017-06-17T04:17:10.163Z,6.67
2017-06-17T04:19:38.655Z,4.97
2017-06-17T04:22:07.048Z,7.20
2017-06-17T04:24:35.429Z,8.83
2017-06-17T04:27:03.940Z,4.40
2017-06-17T04:29:32.347Z,11.80
2017-06-17T04:32:00.752Z,7.83
2017-06-17T04:34:29.224Z,8.10
2017-06-17T04:36:57.907Z,10.70
2017-06-17T04:39:26.277Z,7.43
2017-06-17T04:41:54.671Z,9.60
2017-06-17T04:44:23.352Z,7.83
2017-06-17T04:46:51.720Z,6.90
2017-06-17T04:49:20.867Z,7.17
2017-06-17T04:51:49.629Z,10.53
2017-06-17T04:54:18.009Z,11.10
2017-06-17T04:56:46.528Z,8.67
2017-06-17T04:59:14.916Z,8.60
2017-06-17T05:01:43.315Z,7.07
2017-06-17T05:04:11.684Z,7.40
2017-06-17T05:06:41.014Z,9.00
2017-06-17T05:09:09.372Z,9.33
2017-06-17T05:11:38.531Z,6.80
2017-06-17T05:14:07.381Z,6.00
2017-06-17T05:16:35.791Z,7.60
2017-06-17T05:19:04.187Z,8.43
2017-06-17T05:21:32.777Z,5.83
2017-06-17T05:24:01.150Z,9.20
2017-06-17T05:26:29.540Z,6.53
2017-06-17T05:28:58.377Z,8.93
2017-06-17T05:31:26.759Z,5.80
2017-06-17T05:33:55.333Z,7.83
2017-06-17T05:36:24.492Z,7.53
2017-06-17T05:38:52.886Z,8.70
2017-06-17T05:41:21.297Z,9.90
2017-06-17T05:43:50.467Z,6.50
2017-06-17T05:46:19.609Z,6.53
2017-06-17T05:48:48.043Z,9.23
2017-06-17T05:51:16.484Z,6.90
2017-06-17T05:53:44.884Z,10.33
2017-06-17T05:56:13.303Z,6.60
2017-06-17T05:58:42.480Z,12.70
2017-06-17T06:01:10.892Z,11.30
2017-06-17T06:03:39.261Z,11.77
2017-06-17T06:06:07.783Z,12.53
2017-06-17T06:08:36.177Z,7.20
2017-06-17T06:11:04.565Z,8.40
2017-06-17T06:13:33.011Z,9.73
2017-06-17T06:16:01.433Z,7.57
2017-06-17T06:18:29.843Z,10.17
2017-06-17T06:20:58.292Z,11.33
2017-06-17T06:23:26.823Z,9.10
2017-06-17T06:25:55.213Z,12.03
2017-06-17T06:28:23.613Z,14.63
2017-06-17T06:30:52.061Z,16.03
2017-06-17T06:33:20.443Z,12.23
2017-06-17T06:35:48.856Z,12.30
2017-06-17T06:38:17.242Z,15.67
2017-06-17T06:43:47.008Z,14.50
2017-06-17T06:46:15.487Z,18.07
2017-06-17T06:48:44.635Z,17.03
2017-06-17T06:51:13.064Z,13.33
2017-06-17T06:53:42.244Z,12.53
2017-06-17T06:56:10.672Z,8.90
2017-06-17T06:58:39.051Z,11.77
2017-06-17T07:01:07.501Z,20.37
2017-06-17T07:03:35.878Z,22.27
2017-06-17T07:06:04.286Z,17.23
2017-06-17T07:08:32.842Z,15.57
2017-06-17T07:11:02.043Z,18.47
2017-06-17T07:13:31.179Z,16.93
2017-06-17T07:16:00.034Z,12.90
2017-06-17T07:18:28.509Z,19.20
2017-06-17T07:20:56.990Z,19.27
2017-06-17T07:23:26.253Z,19.40
2017-06-17T07:25:54.715Z,14.23
2017-06-17T07:28:23.332Z,13.27
2017-06-17T07:30:52.556Z,15.10
2017-06-17T07:33:21.043Z,16.03
2017-06-17T07:35:49.455Z,22.10
2017-06-17T07:38:18.252Z,19.07
2017-06-17T07:40:53.080Z,17.37
2017-06-17T07:43:21.629Z,17.80
2017-06-17T07:45:50.017Z,15.30
2017-06-17T07:48:18.576Z,18.77
2017-06-17T07:50:47.288Z,24.20
2017-06-17T07:53:15.688Z,20.80
2017-06-17T07:55:44.097Z,15.17
2017-06-17T07:58:12.825Z,35.13
2017-06-17T08:00:41.289Z,17.97
2017-06-17T08:03:09.692Z,18.40
2017-06-17T08:05:38.266Z,19.13
2017-06-17T08:08:06.663Z,16.07
2017-06-17T08:10:35.077Z,16.33
2017-06-17T08:13:04.609Z,18.83
2017-06-17T08:15:33.025Z,20.27
2017-06-17T08:18:01.406Z,17.93
2017-06-17T08:20:29.910Z,18.43
2017-06-17T08:22:59.104Z,18.00
2017-06-17T08:25:27.662Z,18.73
2017-06-17T08:27:56.317Z,16.47
2017-06-17T08:30:24.732Z,19.10
2017-06-17T08:32:53.157Z,14.30
2017-06-17T08:35:22.427Z,25.40
2017-06-17T08:37:50.845Z,16.23
2017-06-17T08:40:19.283Z,15.10
2017-06-17T08:42:47.739Z,17.30
2017-06-17T08:45:16.726Z,22.87
2017-06-17T08:47:45.124Z,13.70
2017-06-17T08:50:13.595Z,15.70
2017-06-17T08:52:42.003Z,16.43
2017-06-17T08:55:10.390Z,24.07
2017-06-17T08:57:38.865Z,16.20
2017-06-17T09:00:07.276Z,17.57
2017-06-17T09:02:36.436Z,20.20
2017-06-17T09:05:04.887Z,18.67
2017-06-17T09:07:33.289Z,16.10
2017-06-17T09:10:01.743Z,12.90
2017-06-17T09:12:30.168Z,22.10
2017-06-17T09:14:59.356Z,16.30
2017-06-17T09:17:27.783Z,16.53
2017-06-17T09:19:56.220Z,15.97
2017-06-17T09:22:24.669Z,14.47
2017-06-17T09:24:53.171Z,16.17
2017-06-17T09:27:21.675Z,14.27
2017-06-17T09:29:50.873Z,15.37
2017-06-17T09:32:19.292Z,12.27
2017-06-17T09:34:48.591Z,13.43
2017-06-17T09:37:17.692Z,15.40
2017-06-17T09:39:46.125Z,19.40
2017-06-17T09:42:14.592Z,16.80
2017-06-17T09:44:43.019Z,14.33
2017-06-17T09:47:12.976Z,15.47
2017-06-17T09:49:41.481Z,21.40
2017-06-17T09:52:10.277Z,20.27
2017-06-17T09:54:38.825Z,18.70
2017-06-17T09:57:07.268Z,16.70
2017-06-17T09:59:35.700Z,13.37
2017-06-17T10:02:04.094Z,11.60
2017-06-17T10:04:32.553Z,13.47
2017-06-17T10:07:00.976Z,18.33
2017-06-17T10:09:29.426Z,12.70
2017-06-17T10:11:57.842Z,12.60
2017-06-17T10:14:27.026Z,15.43
2017-06-17T10:16:55.459Z,14.27
2017-06-17T10:19:23.847Z,18.47
2017-06-17T10:21:52.232Z,14.20
2017-06-17T10:24:21.519Z,14.30
2017-06-17T10:26:49.912Z,15.83
2017-06-17T10:29:18.334Z,17.20
2017-06-17T10:31:46.772Z,22.50
2017-06-17T10:34:15.232Z,18.43
2017-06-17T10:36:43.665Z,11.87
2017-06-17T10:39:12.096Z,15.20
2017-06-17T10:41:40.507Z,19.43
2017-06-17T10:44:08.974Z,19.73
2017-06-17T10:46:37.360Z,10.73
2017-06-17T10:49:05.762Z,15.43
2017-06-17T10:51:34.223Z,19.43
2017-06-17T10:54:02.671Z,11.87
2017-06-17T10:56:31.834Z,14.10
2017-06-17T10:59:00.279Z,11.07
2017-06-17T11:01:28.667Z,19.50
2017-06-17T11:03:57.080Z,15.40
2017-06-17T11:06:26.333Z,10.47
2017-06-17T11:08:54.743Z,22.47
2017-06-17T11:11:23.208Z,12.63
2017-06-17T11:13:51.687Z,20.73
2017-06-17T11:16:20.127Z,15.43
2017-06-17T11:18:49.304Z,17.27
2017-06-17T11:21:17.854Z,16.20
2017-06-17T11:23:46.273Z,14.10
2017-06-17T11:26:14.753Z,12.73
2017-06-17T11:28:43.223Z,22.33
2017-06-17T11:31:12.419Z,16.50
2017-06-17T11:33:41.687Z,14.97
2017-06-17T11:36:10.154Z,15.27
2017-06-17T11:38:38.574Z,17.07
2017-06-17T11:41:07.050Z,22.90
2017-06-17T11:43:35.467Z,17.33
2017-06-17T11:46:04.639Z,14.90
2017-06-17T11:48:33.862Z,17.37
2017-06-17T11:51:02.302Z,16.60
2017-06-17T11:53:31.552Z,14.50
2017-06-17T11:56:00.032Z,14.13
2017-06-17T11:58:28.512Z,13.53
2017-06-17T12:00:56.947Z,11.40
2017-06-17T12:03:25.719Z,13.43
2017-06-17T12:05:54.164Z,12.27
2017-06-17T12:08:22.569Z,16.00
2017-06-17T12:10:51.456Z,16.50
2017-06-17T12:13:19.891Z,19.07
2017-06-17T12:15:49.047Z,20.67
2017-06-17T12:18:17.846Z,8.73
2017-06-17T12:20:46.378Z,15.87
2017-06-17T12:23:15.981Z,17.47
2017-06-17T12:25:44.609Z,16.57
2017-06-17T12:28:13.051Z,13.87
2017-06-17T12:30:42.240Z,14.70
2017-06-17T12:33:10.748Z,17.47
2017-06-17T12:35:39.170Z,16.03
2017-06-17T12:38:07.633Z,12.43
2017-06-17T12:40:36.321Z,16.07
2017-06-17T12:43:04.749Z,15.17
2017-06-17T12:45:33.197Z,12.50
2017-06-17T12:48:01.949Z,16.27
2017-06-17T12:50:30.363Z,16.50
2017-06-17T12:52:58.792Z,18.23
2017-06-17T12:55:27.267Z,16.47
2017-06-17T12:57:55.690Z,14.30
2017-06-17T13:00:24.151Z,16.17
2017-06-17T13:02:52.649Z,16.03
2017-06-17T13:05:21.047Z,16.00
2017-06-17T13:07:49.480Z,22.77
2017-06-17T13:10:17.887Z,19.40
2017-06-17T13:12:47.099Z,17.57
2017-06-17T13:15:15.561Z,18.97
2017-06-17T13:17:43.956Z,15.97
2017-06-17T13:20:12.401Z,17.03
2017-06-17T13:22:40.874Z,13.07
2017-06-17T13:25:09.316Z,17.87
2017-06-17T13:27:37.825Z,20.03
2017-06-17T13:30:07.326Z,19.57
2017-06-17T13:32:35.751Z,17.03
2017-06-17T13:35:09.729Z,15.30
2017-06-17T13:37:38.183Z,17.30
2017-06-17T13:40:07.498Z,23.40
2017-06-17T13:42:35.945Z,14.37
2017-06-17T13:45:05.155Z,10.33
2017-06-17T13:47:33.616Z,10.17
2017-06-17T13:50:02.039Z,16.23
2017-06-17T13:52:30.474Z,16.33
2017-06-17T13:54:58.933Z,20.30
2017-06-17T13:57:27.435Z,13.30
2017-06-17T13:59:55.954Z,15.60
2017-06-17T14:02:24.493Z,18.53
2017-06-17T14:04:53.239Z,13.00
2017-06-17T14:07:21.697Z,14.10
2017-06-17T14:09:50.196Z,10.93
2017-06-17T14:12:18.650Z,18.00
2017-06-17T14:14:47.833Z,15.53
2017-06-17T14:17:16.269Z,25.63
2017-06-17T14:19:44.693Z,10.87
2017-06-17T14:22:19.608Z,17.30
2017-06-17T14:24:48.046Z,9.57
2017-06-17T14:27:16.482Z,12.03
2017-06-17T14:29:44.960Z,17.87
2017-06-17T14:32:13.389Z,18.10
2017-06-17T14:34:41.861Z,12.00
2017-06-17T14:37:10.299Z,12.33
2017-06-17T14:39:38.722Z,12.50
2017-06-17T14:42:07.187Z,10.47
2017-06-17T14:44:35.718Z,14.70
2017-06-17T14:47:04.272Z,12.93
2017-06-17T14:49:32.679Z,17.20
2017-06-17T14:52:01.131Z,12.07
2017-06-17T14:54:29.530Z,11.80
2017-06-17T14:56:58.043Z,12.77
2017-06-17T14:59:26.575Z,12.70
2017-06-17T15:01:55.042Z,13.00
2017-06-17T15:04:24.358Z,13.23
2017-06-17T15:06:52.845Z,16.60
2017-06-17T15:09:21.237Z,14.10
2017-06-17T15:11:49.707Z,14.10
2017-06-17T15:14:18.222Z,17.80
2017-06-17T15:16:46.635Z,21.53
2017-06-17T15:19:15.087Z,16.27
2017-06-17T15:21:43.550Z,17.33
2017-06-17T15:24:11.974Z,11.83
2017-06-17T15:26:40.441Z,11.30
2017-06-17T15:29:08.874Z,13.00
2017-06-17T15:31:37.346Z,10.87
2017-06-17T15:34:05.739Z,13.20
2017-06-17T15:36:34.217Z,16.13
2017-06-17T15:39:02.629Z,12.60
2017-06-17T15:41:31.147Z,15.40
2017-06-17T15:43:59.569Z,17.40
2017-06-17T15:46:27.985Z,20.00
2017-06-17T15:48:57.210Z,12.53
2017-06-17T15:51:25.636Z,14.77
2017-06-17T15:53:54.150Z,16.97
2017-06-17T15:56:22.588Z,16.77
2017-06-17T15:58:51.049Z,17.63
2017-06-17T16:01:19.630Z,15.80
2017-06-17T16:03:48.227Z,18.07
2017-06-17T16:06:16.796Z,14.73
2017-06-17T16:08:45.331Z,13.10
2017-06-17T16:11:14.685Z,15.13
2017-06-17T16:13:43.076Z,16.53
2017-06-17T16:16:11.530Z,15.23
2017-06-17T16:18:40.005Z,12.10
2017-06-17T16:21:09.339Z,13.37
2017-06-17T16:23:37.814Z,16.73
2017-06-17T16:26:06.271Z,10.40
2017-06-17T16:28:35.597Z,16.77
2017-06-17T16:31:04.100Z,11.50
2017-06-17T16:33:32.602Z,10.30
2017-06-17T16:36:01.057Z,9.63
2017-06-17T16:38:30.744Z,8.50
2017-06-17T16:41:00.136Z,11.07
2017-06-17T16:43:28.609Z,10.23
2017-06-17T16:45:57.081Z,9.37
2017-06-17T16:48:25.531Z,10.63
2017-06-17T16:50:54.067Z,12.70
2017-06-17T16:53:22.471Z,8.80
2017-06-17T16:55:50.895Z,8.37
2017-06-17T16:58:19.447Z,7.40
2017-06-17T17:00:47.887Z,8.33
2017-06-17T17:03:16.307Z,9.47
2017-06-17T17:05:44.769Z,5.83
2017-06-17T17:08:13.213Z,10.47
2017-06-17T17:10:41.655Z,6.37
2017-06-17T17:13:10.110Z,6.50
2017-06-17T17:15:38.535Z,11.00
2017-06-17T17:18:06.955Z,7.07
2017-06-17T17:20:35.428Z,8.57
2017-06-17T17:23:03.833Z,7.00
2017-06-17T17:25:32.356Z,8.97
2017-06-17T17:28:00.782Z,7.07
2017-06-17T17:30:29.236Z,8.63
2017-06-17T17:32:57.672Z,5.30
2017-06-17T17:35:26.110Z,11.77
2017-06-17T17:37:54.512Z,5.97
2017-06-17T17:40:22.952Z,6.90
2017-06-17T17:42:51.390Z,5.63
2017-06-17T17:45:19.778Z,6.73
2017-06-17T17:47:48.273Z,6.53
2017-06-17T17:50:16.713Z,4.63
2017-06-17T17:52:45.113Z,6.80
2017-06-17T17:55:13.559Z,5.63
2017-06-17T17:57:41.999Z,3.80
2017-06-17T18:00:11.248Z,7.20
2017-06-17T18:02:39.642Z,4.00
2017-06-17T18:05:09.021Z,4.60
2017-06-17T18:07:37.455Z,7.10
2017-06-17T18:10:05.929Z,4.53
2017-06-17T18:12:34.386Z,6.57
2017-06-17T18:15:02.794Z,6.27
2017-06-17T18:17:31.187Z,9.37
2017-06-17T18:19:59.743Z,4.70
2017-06-17T18:22:28.179Z,7.67
2017-06-17T18:24:57.344Z,6.20
2017-06-17T18:27:26.638Z,3.90
2017-06-17T18:29:55.156Z,4.40
2017-06-17T18:32:23.605Z,4.87
2017-06-17T18:34:52.117Z,4.37
2017-06-17T18:37:21.275Z,4.17
2017-06-17T18:39:50.478Z,7.10
2017-06-17T18:42:18.879Z,5.43
2017-06-17T18:44:47.348Z,7.87
2017-06-17T18:47:15.839Z,5.20
2017-06-17T18:49:45.164Z,5.60
2017-06-17T18:52:13.582Z,3.93
2017-06-17T18:54:42.902Z,6.60
2017-06-17T18:57:12.151Z,6.23
2017-06-17T18:59:40.562Z,4.43
2017-06-17T19:02:09.100Z,4.07
2017-06-17T19:04:37.523Z,5.73
2017-06-17T19:07:06.282Z,5.03
2017-06-17T19:09:34.670Z,13.53
2017-06-17T19:12:03.084Z,5.10
2017-06-17T19:14:32.347Z,4.13
2017-06-17T19:17:03.735Z,5.57
2017-06-17T19:19:32.989Z,6.30
2017-06-17T19:22:01.455Z,6.60
2017-06-17T19:24:29.934Z,4.83
2017-06-17T19:26:59.383Z,4.60
2017-06-17T19:29:27.785Z,5.50
2017-06-17T19:31:57.034Z,3.93
2017-06-17T19:34:29.100Z,6.03
2017-06-17T19:36:57.667Z,7.53
2017-06-17T19:39:27.075Z,6.17
2017-06-17T19:41:55.507Z,9.30
2017-06-17T19:44:25.097Z,4.67
2017-06-17T19:46:53.508Z,4.90
2017-06-17T19:49:22.015Z,7.90
2017-06-17T19:51:51.229Z,6.40
2017-06-17T19:54:19.689Z,6.20
2017-06-17T19:56:48.130Z,8.27
2017-06-17T19:59:16.608Z,4.60
2017-06-17T20:01:45.145Z,4.27
2017-06-17T20:04:13.588Z,5.63
2017-06-17T20:06:42.221Z,5.87
2017-06-17T20:09:10.638Z,4.37
2017-06-17T20:11:39.069Z,5.87
2017-06-17T20:14:07.565Z,5.53
2017-06-17T20:16:36.020Z,7.97
2017-06-17T20:19:04.465Z,6.73
2017-06-17T20:21:38.498Z,7.13
2017-06-17T20:24:13.327Z,5.13
2017-06-17T20:26:41.787Z,10.00
2017-06-17T20:29:11.031Z,4.87
2017-06-17T20:31:39.492Z,6.97
2017-06-17T20:34:08.236Z,5.77
2017-06-17T20:36:36.871Z,10.33
2017-06-17T20:39:05.302Z,4.83
2017-06-17T20:41:34.065Z,5.97
2017-06-17T20:44:02.495Z,7.60
2017-06-17T20:46:30.927Z,5.80
2017-06-17T20:48:59.560Z,9.60
2017-06-17T20:51:28.002Z,8.00
2017-06-17T20:53:56.437Z,7.67
2017-06-17T20:56:24.976Z,6.03
2017-06-17T20:58:53.627Z,5.53
2017-06-17T21:01:22.063Z,9.90
2017-06-17T21:03:50.935Z,11.63
2017-06-17T21:06:19.362Z,7.63
2017-06-17T21:08:47.834Z,7.27
2017-06-17T21:11:16.378Z,7.77
2017-06-17T21:13:44.895Z,9.23
2017-06-17T21:16:13.336Z,4.97
2017-06-17T21:18:42.185Z,7.97
2017-06-17T21:21:11.373Z,6.40
2017-06-17T21:23:39.841Z,6.00
2017-06-17T21:26:09.396Z,7.80
2017-06-17T21:28:37.927Z,11.90
2017-06-17T21:31:07.113Z,7.93
2017-06-17T21:33:35.594Z,8.90
2017-06-17T21:36:04.060Z,8.90
2017-06-17T21:38:32.481Z,13.50
2017-06-17T21:41:01.082Z,6.77
2017-06-17T21:43:29.557Z,6.53
2017-06-17T21:46:00.363Z,8.10
2017-06-17T21:48:29.489Z,7.07
2017-06-17T21:50:57.973Z,15.63
2017-06-17T21:53:27.159Z,5.93
2017-06-17T21:55:56.490Z,8.43
2017-06-17T21:58:24.903Z,7.30
2017-06-17T22:00:53.313Z,5.53
2017-06-17T22:03:21.779Z,7.10
2017-06-17T22:05:51.060Z,10.30
2017-06-17T22:08:19.491Z,8.10
2017-06-17T22:10:48.382Z,7.93
2017-06-17T22:13:16.979Z,5.97
2017-06-17T22:15:45.535Z,10.13
2017-06-17T22:18:14.251Z,8.50
2017-06-17T22:20:42.681Z,6.60
2017-06-17T22:23:11.983Z,6.47
2017-06-17T22:25:41.829Z,6.47
2017-06-17T22:28:10.313Z,8.33
2017-06-17T22:30:38.763Z,6.43
2017-06-17T22:33:07.964Z,6.03
2017-06-17T22:35:37.145Z,6.20
2017-06-17T22:38:18.052Z,6.17
2017-06-17T22:40:46.622Z,5.87
2017-06-17T22:43:15.045Z,7.37
2017-06-17T22:45:43.495Z,7.17
2017-06-17T22:48:11.943Z,7.10
2017-06-17T22:50:40.655Z,7.10
2017-06-17T22:53:09.536Z,6.63
2017-06-17T22:55:37.999Z,6.80
2017-06-17T22:58:06.404Z,6.27
2017-06-17T23:00:35.552Z,8.50
2017-06-17T23:03:04.009Z,6.60
2017-06-17T23:05:32.449Z,6.13
2017-06-17T23:08:01.639Z,7.00
2017-06-17T23:10:30.062Z,6.60
2017-06-17T23:12:58.453Z,6.63
2017-06-17T23:15:26.903Z,7.13
2017-06-17T23:17:55.304Z,8.40
2017-06-17T23:20:23.735Z,5.87
2017-06-17T23:22:52.210Z,6.37
2017-06-17T23:25:20.673Z,6.17
2017-06-17T23:27:49.061Z,8.87
2017-06-17T23:30:17.464Z,6.70
2017-06-17T23:32:45.913Z,5.43
2017-06-17T23:35:14.395Z,5.37
2017-06-17T23:37:43.627Z,7.60
2017-06-17T23:40:12.194Z,5.63
2017-06-17T23:42:40.671Z,9.40
2017-06-17T23:45:09.185Z,5.50
2017-06-17T23:47:37.700Z,6.20
2017-06-17T23:50:06.841Z,5.77
2017-06-17T23:52:35.269Z,7.53
2017-06-17T23:55:04.595Z,7.83
2017-06-17T23:57:33.745Z,6.47
